sensor_id;sensor_type;location;lat;lon;timestamp;P1;P2;P0
48893;PMS5003;34710;35.798;139.446;2023-06-10T00:01:56;15;14;
48893;PMS5003;34710;35.798;139.446;2023-06-10T00:04:21;14;12;
48893;PMS5003;34710;35.798;139.446;2023-06-10T00:06:47;13;12;
48893;PMS5003;34710;35.798;139.446;2023-06-10T00:09:12;15;13;
48893;PMS5003;34710;35.798;139.446;2023-06-10T00:11:37;11;11;
48893;PMS5003;34710;35.798;139.446;2023-06-10T00:14:02;12;7;
48893;PMS5003;34710;35.798;139.446;2023-06-10T00:16:27;13;13;
48893;PMS5003;34710;35.798;139.446;2023-06-10T00:18:53;12;11;
48893;PMS5003;34710;35.798;139.446;2023-06-10T00:21:18;10;10;
48893;PMS5003;34710;35.798;139.446;2023-06-10T00:23:43;12;9;
48893;PMS5003;34710;35.798;139.446;2023-06-10T00:26:08;14;11;
48893;PMS5003;34710;35.798;139.446;2023-06-10T00:28:33;11;11;
48893;PMS5003;34710;35.798;139.446;2023-06-10T00:30:58;14;12;
48893;PMS5003;34710;35.798;139.446;2023-06-10T00:33:23;14;11;
48893;PMS5003;34710;35.798;139.446;2023-06-10T00:35:49;11;10;
48893;PMS5003;34710;35.798;139.446;2023-06-10T00:38:14;12;10;
48893;PMS5003;34710;35.798;139.446;2023-06-10T00:40:39;14;14;
48893;PMS5003;34710;35.798;139.446;2023-06-10T00:43:04;13;10;
48893;PMS5003;34710;35.798;139.446;2023-06-10T00:45:29;13;9;
48893;PMS5003;34710;35.798;139.446;2023-06-10T00:47:54;13;10;
48893;PMS5003;34710;35.798;139.446;2023-06-10T00:50:19;12;10;
48893;PMS5003;34710;35.798;139.446;2023-06-10T00:52:44;11;10;
48893;PMS5003;34710;35.798;139.446;2023-06-10T00:55:09;10;10;
48893;PMS5003;34710;35.798;139.446;2023-06-10T00:57:34;10;10;
48893;PMS5003;34710;35.798;139.446;2023-06-10T01:00:00;9;9;
48893;PMS5003;34710;35.798;139.446;2023-06-10T01:02:25;9;9;
48893;PMS5003;34710;35.798;139.446;2023-06-10T01:04:50;10;10;
48893;PMS5003;34710;35.798;139.446;2023-06-10T01:07:17;12;11;
48893;PMS5003;34710;35.798;139.446;2023-06-10T01:09:41;14;11;
48893;PMS5003;34710;35.798;139.446;2023-06-10T01:12:08;11;11;
48893;PMS5003;34710;35.798;139.446;2023-06-10T01:14:30;11;11;
48893;PMS5003;34710;35.798;139.446;2023-06-10T01:16:55;12;11;
48893;PMS5003;34710;35.798;139.446;2023-06-10T01:19:21;11;11;
48893;PMS5003;34710;35.798;139.446;2023-06-10T01:21:46;10;10;
48893;PMS5003;34710;35.798;139.446;2023-06-10T01:24:10;11;11;
48893;PMS5003;34710;35.798;139.446;2023-06-10T01:26:35;10;10;
48893;PMS5003;34710;35.798;139.446;2023-06-10T01:29:03;10;9;
48893;PMS5003;34710;35.798;139.446;2023-06-10T01:31:28;11;10;
48893;PMS5003;34710;35.798;139.446;2023-06-10T01:33:52;11;10;
48893;PMS5003;34710;35.798;139.446;2023-06-10T01:36:16;11;10;
48893;PMS5003;34710;35.798;139.446;2023-06-10T01:38:42;11;11;
48893;PMS5003;34710;35.798;139.446;2023-06-10T01:41:06;11;10;
48893;PMS5003;34710;35.798;139.446;2023-06-10T01:43:32;12;11;
48893;PMS5003;34710;35.798;139.446;2023-06-10T01:45:56;13;10;
48893;PMS5003;34710;35.798;139.446;2023-06-10T01:48:22;16;10;
48893;PMS5003;34710;35.798;139.446;2023-06-10T01:50:47;7;7;
48893;PMS5003;34710;35.798;139.446;2023-06-10T01:53:12;12;9;
48893;PMS5003;34710;35.798;139.446;2023-06-10T01:55:37;10;9;
48893;PMS5003;34710;35.798;139.446;2023-06-10T01:58:02;11;11;
48893;PMS5003;34710;35.798;139.446;2023-06-10T02:00:27;12;9;
48893;PMS5003;34710;35.798;139.446;2023-06-10T02:02:52;11;8;
48893;PMS5003;34710;35.798;139.446;2023-06-10T02:05:17;10;8;
48893;PMS5003;34710;35.798;139.446;2023-06-10T02:07:43;11;11;
48893;PMS5003;34710;35.798;139.446;2023-06-10T02:10:08;10;10;
48893;PMS5003;34710;35.798;139.446;2023-06-10T02:12:32;11;10;
48893;PMS5003;34710;35.798;139.446;2023-06-10T02:14:58;10;9;
48893;PMS5003;34710;35.798;139.446;2023-06-10T02:17:23;8;8;
48893;PMS5003;34710;35.798;139.446;2023-06-10T02:19:47;9;9;
48893;PMS5003;34710;35.798;139.446;2023-06-10T02:22:13;12;10;
48893;PMS5003;34710;35.798;139.446;2023-06-10T02:24:37;8;8;
48893;PMS5003;34710;35.798;139.446;2023-06-10T02:27:03;12;11;
48893;PMS5003;34710;35.798;139.446;2023-06-10T02:29:27;7;7;
48893;PMS5003;34710;35.798;139.446;2023-06-10T02:31:53;9;9;
48893;PMS5003;34710;35.798;139.446;2023-06-10T02:34:18;12;12;
48893;PMS5003;34710;35.798;139.446;2023-06-10T02:36:43;11;11;
48893;PMS5003;34710;35.798;139.446;2023-06-10T02:39:08;9;9;
48893;PMS5003;34710;35.798;139.446;2023-06-10T02:41:33;10;10;
48893;PMS5003;34710;35.798;139.446;2023-06-10T02:43:58;15;10;
48893;PMS5003;34710;35.798;139.446;2023-06-10T02:46:23;10;10;
48893;PMS5003;34710;35.798;139.446;2023-06-10T02:48:48;12;11;
48893;PMS5003;34710;35.798;139.446;2023-06-10T02:51:13;11;11;
48893;PMS5003;34710;35.798;139.446;2023-06-10T02:53:38;11;11;
48893;PMS5003;34710;35.798;139.446;2023-06-10T02:56:03;9;9;
48893;PMS5003;34710;35.798;139.446;2023-06-10T02:58:28;10;10;
48893;PMS5003;34710;35.798;139.446;2023-06-10T03:00:53;10;10;
48893;PMS5003;34710;35.798;139.446;2023-06-10T03:03:18;13;11;
48893;PMS5003;34710;35.798;139.446;2023-06-10T03:05:44;18;10;
48893;PMS5003;34710;35.798;139.446;2023-06-10T03:08:09;12;10;
48893;PMS5003;34710;35.798;139.446;2023-06-10T03:10:34;11;10;
48893;PMS5003;34710;35.798;139.446;2023-06-10T03:12:59;10;10;
48893;PMS5003;34710;35.798;139.446;2023-06-10T03:15:24;14;12;
48893;PMS5003;34710;35.798;139.446;2023-06-10T03:17:49;13;13;
48893;PMS5003;34710;35.798;139.446;2023-06-10T03:20:14;10;9;
48893;PMS5003;34710;35.798;139.446;2023-06-10T03:22:40;10;10;
48893;PMS5003;34710;35.798;139.446;2023-06-10T03:25:05;14;14;
48893;PMS5003;34710;35.798;139.446;2023-06-10T03:27:29;12;11;
48893;PMS5003;34710;35.798;139.446;2023-06-10T03:29:54;13;11;
48893;PMS5003;34710;35.798;139.446;2023-06-10T03:32:19;15;14;
48893;PMS5003;34710;35.798;139.446;2023-06-10T03:34:45;13;12;
48893;PMS5003;34710;35.798;139.446;2023-06-10T03:37:10;13;11;
48893;PMS5003;34710;35.798;139.446;2023-06-10T03:39:36;16;14;
48893;PMS5003;34710;35.798;139.446;2023-06-10T03:42:01;15;13;
48893;PMS5003;34710;35.798;139.446;2023-06-10T03:44:26;14;11;
48893;PMS5003;34710;35.798;139.446;2023-06-10T03:46:51;13;12;
48893;PMS5003;34710;35.798;139.446;2023-06-10T03:49:16;12;12;
48893;PMS5003;34710;35.798;139.446;2023-06-10T03:51:41;12;12;
48893;PMS5003;34710;35.798;139.446;2023-06-10T03:54:06;13;12;
48893;PMS5003;34710;35.798;139.446;2023-06-10T03:56:31;13;13;
48893;PMS5003;34710;35.798;139.446;2023-06-10T03:58:56;17;13;
48893;PMS5003;34710;35.798;139.446;2023-06-10T04:01:22;21;13;
48893;PMS5003;34710;35.798;139.446;2023-06-10T04:03:47;17;16;
48893;PMS5003;34710;35.798;139.446;2023-06-10T04:06:12;13;11;
48893;PMS5003;34710;35.798;139.446;2023-06-10T04:08:38;16;14;
48893;PMS5003;34710;35.798;139.446;2023-06-10T04:11:03;22;18;
48893;PMS5003;34710;35.798;139.446;2023-06-10T04:13:28;13;13;
48893;PMS5003;34710;35.798;139.446;2023-06-10T04:15:54;14;13;
48893;PMS5003;34710;35.798;139.446;2023-06-10T04:18:19;12;11;
48893;PMS5003;34710;35.798;139.446;2023-06-10T04:20:44;13;12;
48893;PMS5003;34710;35.798;139.446;2023-06-10T04:23:09;17;16;
48893;PMS5003;34710;35.798;139.446;2023-06-10T04:25:34;13;13;
48893;PMS5003;34710;35.798;139.446;2023-06-10T04:28:00;25;14;
48893;PMS5003;34710;35.798;139.446;2023-06-10T04:30:25;17;16;
48893;PMS5003;34710;35.798;139.446;2023-06-10T04:32:50;14;13;
48893;PMS5003;34710;35.798;139.446;2023-06-10T04:35:15;23;13;
48893;PMS5003;34710;35.798;139.446;2023-06-10T04:37:40;17;17;
48893;PMS5003;34710;35.798;139.446;2023-06-10T04:40:06;16;16;
48893;PMS5003;34710;35.798;139.446;2023-06-10T04:42:30;17;16;
48893;PMS5003;34710;35.798;139.446;2023-06-10T04:44:55;17;17;
48893;PMS5003;34710;35.798;139.446;2023-06-10T04:47:21;13;13;
48893;PMS5003;34710;35.798;139.446;2023-06-10T04:49:46;14;12;
48893;PMS5003;34710;35.798;139.446;2023-06-10T04:52:11;16;14;
48893;PMS5003;34710;35.798;139.446;2023-06-10T04:54:37;15;15;
48893;PMS5003;34710;35.798;139.446;2023-06-10T04:57:02;15;14;
48893;PMS5003;34710;35.798;139.446;2023-06-10T04:59:27;17;17;
48893;PMS5003;34710;35.798;139.446;2023-06-10T05:01:52;19;17;
48893;PMS5003;34710;35.798;139.446;2023-06-10T05:04:17;19;18;
48893;PMS5003;34710;35.798;139.446;2023-06-10T05:06:43;16;16;
48893;PMS5003;34710;35.798;139.446;2023-06-10T05:09:08;18;18;
48893;PMS5003;34710;35.798;139.446;2023-06-10T05:11:33;16;14;
48893;PMS5003;34710;35.798;139.446;2023-06-10T05:13:58;27;19;
48893;PMS5003;34710;35.798;139.446;2023-06-10T05:16:25;19;19;
48893;PMS5003;34710;35.798;139.446;2023-06-10T05:18:50;22;19;
48893;PMS5003;34710;35.798;139.446;2023-06-10T05:21:15;20;20;
48893;PMS5003;34710;35.798;139.446;2023-06-10T05:23:40;19;19;
48893;PMS5003;34710;35.798;139.446;2023-06-10T05:26:06;22;19;
48893;PMS5003;34710;35.798;139.446;2023-06-10T05:28:32;31;19;
48893;PMS5003;34710;35.798;139.446;2023-06-10T05:30:57;20;20;
48893;PMS5003;34710;35.798;139.446;2023-06-10T05:33:22;21;18;
48893;PMS5003;34710;35.798;139.446;2023-06-10T05:35:47;23;22;
48893;PMS5003;34710;35.798;139.446;2023-06-10T05:38:12;27;24;
48893;PMS5003;34710;35.798;139.446;2023-06-10T05:40:38;23;22;
48893;PMS5003;34710;35.798;139.446;2023-06-10T05:43:03;21;20;
48893;PMS5003;34710;35.798;139.446;2023-06-10T05:45:29;21;19;
48893;PMS5003;34710;35.798;139.446;2023-06-10T05:47:54;22;22;
48893;PMS5003;34710;35.798;139.446;2023-06-10T05:50:19;23;22;
48893;PMS5003;34710;35.798;139.446;2023-06-10T05:52:44;24;21;
48893;PMS5003;34710;35.798;139.446;2023-06-10T05:55:10;20;20;
48893;PMS5003;34710;35.798;139.446;2023-06-10T05:57:35;22;20;
48893;PMS5003;34710;35.798;139.446;2023-06-10T06:00:00;25;22;
48893;PMS5003;34710;35.798;139.446;2023-06-10T06:02:26;35;20;
48893;PMS5003;34710;35.798;139.446;2023-06-10T06:04:51;25;23;
48893;PMS5003;34710;35.798;139.446;2023-06-10T06:07:18;24;23;
48893;PMS5003;34710;35.798;139.446;2023-06-10T06:09:42;28;22;
48893;PMS5003;34710;35.798;139.446;2023-06-10T06:12:09;25;25;
48893;PMS5003;34710;35.798;139.446;2023-06-10T06:14:37;24;23;
48893;PMS5003;34710;35.798;139.446;2023-06-10T06:17:00;29;21;
48893;PMS5003;34710;35.798;139.446;2023-06-10T06:19:25;24;21;
48893;PMS5003;34710;35.798;139.446;2023-06-10T06:21:50;31;21;
48893;PMS5003;34710;35.798;139.446;2023-06-10T06:24:16;25;22;
48893;PMS5003;34710;35.798;139.446;2023-06-10T06:26:41;21;21;
48893;PMS5003;34710;35.798;139.446;2023-06-10T06:29:07;26;19;
48893;PMS5003;34710;35.798;139.446;2023-06-10T06:31:32;23;23;
48893;PMS5003;34710;35.798;139.446;2023-06-10T06:33:57;23;23;
48893;PMS5003;34710;35.798;139.446;2023-06-10T06:36:23;26;25;
48893;PMS5003;34710;35.798;139.446;2023-06-10T06:38:49;27;24;
48893;PMS5003;34710;35.798;139.446;2023-06-10T06:41:15;22;20;
48893;PMS5003;34710;35.798;139.446;2023-06-10T06:43:40;27;25;
48893;PMS5003;34710;35.798;139.446;2023-06-10T06:46:06;25;25;
48893;PMS5003;34710;35.798;139.446;2023-06-10T06:48:31;29;27;
48893;PMS5003;34710;35.798;139.446;2023-06-10T06:50:57;40;24;
48893;PMS5003;34710;35.798;139.446;2023-06-10T06:53:22;25;25;
48893;PMS5003;34710;35.798;139.446;2023-06-10T06:55:47;34;25;
48893;PMS5003;34710;35.798;139.446;2023-06-10T06:58:12;24;24;
48893;PMS5003;34710;35.798;139.446;2023-06-10T07:00:38;35;27;
48893;PMS5003;34710;35.798;139.446;2023-06-10T07:03:03;31;28;
48893;PMS5003;34710;35.798;139.446;2023-06-10T07:05:28;27;25;
48893;PMS5003;34710;35.798;139.446;2023-06-10T07:07:54;30;29;
48893;PMS5003;34710;35.798;139.446;2023-06-10T07:10:19;29;28;
48893;PMS5003;34710;35.798;139.446;2023-06-10T07:12:44;33;29;
48893;PMS5003;34710;35.798;139.446;2023-06-10T07:15:10;34;27;
48893;PMS5003;34710;35.798;139.446;2023-06-10T07:17:35;34;31;
48893;PMS5003;34710;35.798;139.446;2023-06-10T07:20:00;43;27;
48893;PMS5003;34710;35.798;139.446;2023-06-10T07:22:25;28;28;
48893;PMS5003;34710;35.798;139.446;2023-06-10T07:24:51;41;30;
48893;PMS5003;34710;35.798;139.446;2023-06-10T07:27:17;42;28;
48893;PMS5003;34710;35.798;139.446;2023-06-10T07:29:42;30;30;
48893;PMS5003;34710;35.798;139.446;2023-06-10T07:32:08;33;31;
48893;PMS5003;34710;35.798;139.446;2023-06-10T07:34:33;34;26;
48893;PMS5003;34710;35.798;139.446;2023-06-10T07:36:59;32;30;
48893;PMS5003;34710;35.798;139.446;2023-06-10T07:39:24;31;30;
48893;PMS5003;34710;35.798;139.446;2023-06-10T07:41:49;41;27;
48893;PMS5003;34710;35.798;139.446;2023-06-10T07:44:14;40;32;
48893;PMS5003;34710;35.798;139.446;2023-06-10T07:46:39;39;29;
48893;PMS5003;34710;35.798;139.446;2023-06-10T07:49:04;34;32;
48893;PMS5003;34710;35.798;139.446;2023-06-10T07:51:30;33;31;
48893;PMS5003;34710;35.798;139.446;2023-06-10T07:53:55;37;34;
48893;PMS5003;34710;35.798;139.446;2023-06-10T07:56:21;36;29;
48893;PMS5003;34710;35.798;139.446;2023-06-10T07:58:46;38;32;
48893;PMS5003;34710;35.798;139.446;2023-06-10T08:01:12;41;35;
48893;PMS5003;34710;35.798;139.446;2023-06-10T08:03:36;38;32;
48893;PMS5003;34710;35.798;139.446;2023-06-10T08:06:02;47;35;
48893;PMS5003;34710;35.798;139.446;2023-06-10T08:08:27;42;31;
48893;PMS5003;34710;35.798;139.446;2023-06-10T08:10:53;29;29;
48893;PMS5003;34710;35.798;139.446;2023-06-10T08:13:18;39;32;
48893;PMS5003;34710;35.798;139.446;2023-06-10T08:15:43;41;32;
48893;PMS5003;34710;35.798;139.446;2023-06-10T08:18:09;46;29;
48893;PMS5003;34710;35.798;139.446;2023-06-10T08:20:35;31;30;
48893;PMS5003;34710;35.798;139.446;2023-06-10T08:23:00;32;28;
48893;PMS5003;34710;35.798;139.446;2023-06-10T08:25:25;32;30;
48893;PMS5003;34710;35.798;139.446;2023-06-10T08:27:50;33;30;
48893;PMS5003;34710;35.798;139.446;2023-06-10T08:30:16;35;32;
48893;PMS5003;34710;35.798;139.446;2023-06-10T08:32:41;31;30;
48893;PMS5003;34710;35.798;139.446;2023-06-10T08:35:06;31;30;
48893;PMS5003;34710;35.798;139.446;2023-06-10T08:37:32;35;26;
48893;PMS5003;34710;35.798;139.446;2023-06-10T08:39:57;32;31;
48893;PMS5003;34710;35.798;139.446;2023-06-10T08:42:24;38;30;
48893;PMS5003;34710;35.798;139.446;2023-06-10T08:44:48;32;31;
48893;PMS5003;34710;35.798;139.446;2023-06-10T08:47:14;39;30;
48893;PMS5003;34710;35.798;139.446;2023-06-10T08:49:41;43;30;
48893;PMS5003;34710;35.798;139.446;2023-06-10T08:52:05;43;31;
48893;PMS5003;34710;35.798;139.446;2023-06-10T08:54:31;41;32;
48893;PMS5003;34710;35.798;139.446;2023-06-10T08:56:57;34;32;
48893;PMS5003;34710;35.798;139.446;2023-06-10T08:59:21;33;31;
48893;PMS5003;34710;35.798;139.446;2023-06-10T09:01:46;41;32;
48893;PMS5003;34710;35.798;139.446;2023-06-10T09:04:12;51;31;
48893;PMS5003;34710;35.798;139.446;2023-06-10T09:06:37;44;34;
48893;PMS5003;34710;35.798;139.446;2023-06-10T09:09:02;46;32;
48893;PMS5003;34710;35.798;139.446;2023-06-10T09:11:28;34;29;
48893;PMS5003;34710;35.798;139.446;2023-06-10T09:13:54;40;30;
48893;PMS5003;34710;35.798;139.446;2023-06-10T09:16:19;27;23;
48893;PMS5003;34710;35.798;139.446;2023-06-10T09:18:45;33;25;
48893;PMS5003;34710;35.798;139.446;2023-06-10T09:21:10;28;25;
48893;PMS5003;34710;35.798;139.446;2023-06-10T09:23:36;30;27;
48893;PMS5003;34710;35.798;139.446;2023-06-10T09:26:00;25;22;
48893;PMS5003;34710;35.798;139.446;2023-06-10T09:28:26;21;21;
48893;PMS5003;34710;35.798;139.446;2023-06-10T09:33:16;21;19;
48893;PMS5003;34710;35.798;139.446;2023-06-10T09:35:45;18;17;
48893;PMS5003;34710;35.798;139.446;2023-06-10T09:38:07;19;17;
48893;PMS5003;34710;35.798;139.446;2023-06-10T09:40:32;22;18;
48893;PMS5003;34710;35.798;139.446;2023-06-10T09:42:58;21;16;
48893;PMS5003;34710;35.798;139.446;2023-06-10T09:45:23;21;19;
48893;PMS5003;34710;35.798;139.446;2023-06-10T09:47:51;18;15;
48893;PMS5003;34710;35.798;139.446;2023-06-10T09:50:14;15;13;
48893;PMS5003;34710;35.798;139.446;2023-06-10T09:52:39;22;18;
48893;PMS5003;34710;35.798;139.446;2023-06-10T09:55:07;19;15;
48893;PMS5003;34710;35.798;139.446;2023-06-10T09:57:31;16;16;
48893;PMS5003;34710;35.798;139.446;2023-06-10T09:59:56;14;13;
48893;PMS5003;34710;35.798;139.446;2023-06-10T10:02:22;16;13;
48893;PMS5003;34710;35.798;139.446;2023-06-10T10:04:47;24;17;
48893;PMS5003;34710;35.798;139.446;2023-06-10T10:07:13;18;17;
48893;PMS5003;34710;35.798;139.446;2023-06-10T10:09:37;19;17;
48893;PMS5003;34710;35.798;139.446;2023-06-10T10:12:04;14;14;
48893;PMS5003;34710;35.798;139.446;2023-06-10T10:14:28;15;14;
48893;PMS5003;34710;35.798;139.446;2023-06-10T10:16:53;15;14;
48893;PMS5003;34710;35.798;139.446;2023-06-10T10:19:20;26;12;
48893;PMS5003;34710;35.798;139.446;2023-06-10T10:21:47;14;12;
48893;PMS5003;34710;35.798;139.446;2023-06-10T10:24:16;16;12;
48893;PMS5003;34710;35.798;139.446;2023-06-10T10:26:35;14;12;
48893;PMS5003;34710;35.798;139.446;2023-06-10T10:29:05;24;11;
48893;PMS5003;34710;35.798;139.446;2023-06-10T10:31:25;14;14;
48893;PMS5003;34710;35.798;139.446;2023-06-10T10:33:53;11;10;
48893;PMS5003;34710;35.798;139.446;2023-06-10T10:36:15;10;10;
48893;PMS5003;34710;35.798;139.446;2023-06-10T10:38:41;13;12;
48893;PMS5003;34710;35.798;139.446;2023-06-10T10:41:06;12;11;
48893;PMS5003;34710;35.798;139.446;2023-06-10T10:43:31;13;10;
48893;PMS5003;34710;35.798;139.446;2023-06-10T10:45:59;15;13;
48893;PMS5003;34710;35.798;139.446;2023-06-10T10:48:21;20;10;
48893;PMS5003;34710;35.798;139.446;2023-06-10T10:53:12;12;12;
48893;PMS5003;34710;35.798;139.446;2023-06-10T10:55:37;14;11;
48893;PMS5003;34710;35.798;139.446;2023-06-10T10:58:03;14;11;
48893;PMS5003;34710;35.798;139.446;2023-06-10T11:00:28;12;11;
48893;PMS5003;34710;35.798;139.446;2023-06-10T11:02:53;14;12;
48893;PMS5003;34710;35.798;139.446;2023-06-10T11:05:17;13;12;
48893;PMS5003;34710;35.798;139.446;2023-06-10T11:10:08;11;9;
48893;PMS5003;34710;35.798;139.446;2023-06-10T11:12:41;13;12;
48893;PMS5003;34710;35.798;139.446;2023-06-10T11:14:58;14;10;
48893;PMS5003;34710;35.798;139.446;2023-06-10T11:17:24;15;12;
48893;PMS5003;34710;35.798;139.446;2023-06-10T11:19:49;12;12;
48893;PMS5003;34710;35.798;139.446;2023-06-10T11:22:16;12;11;
48893;PMS5003;34710;35.798;139.446;2023-06-10T11:24:39;12;11;
48893;PMS5003;34710;35.798;139.446;2023-06-10T11:29:29;13;12;
48893;PMS5003;34710;35.798;139.446;2023-06-10T11:31:55;14;10;
48893;PMS5003;34710;35.798;139.446;2023-06-10T11:34:23;12;9;
48893;PMS5003;34710;35.798;139.446;2023-06-10T11:36:45;10;9;
48893;PMS5003;34710;35.798;139.446;2023-06-10T11:39:11;18;12;
48893;PMS5003;34710;35.798;139.446;2023-06-10T11:41:36;10;10;
48893;PMS5003;34710;35.798;139.446;2023-06-10T11:44:02;15;13;
48893;PMS5003;34710;35.798;139.446;2023-06-10T11:46:26;15;13;
48893;PMS5003;34710;35.798;139.446;2023-06-10T11:48:52;12;10;
48893;PMS5003;34710;35.798;139.446;2023-06-10T11:51:16;10;10;
48893;PMS5003;34710;35.798;139.446;2023-06-10T11:53:43;13;12;
48893;PMS5003;34710;35.798;139.446;2023-06-10T11:56:06;18;11;
48893;PMS5003;34710;35.798;139.446;2023-06-10T11:58:31;13;10;
48893;PMS5003;34710;35.798;139.446;2023-06-10T12:00:57;16;12;
48893;PMS5003;34710;35.798;139.446;2023-06-10T12:03:22;11;11;
48893;PMS5003;34710;35.798;139.446;2023-06-10T12:05:57;22;10;
48893;PMS5003;34710;35.798;139.446;2023-06-10T12:08:13;17;15;
48893;PMS5003;34710;35.798;139.446;2023-06-10T12:10:40;16;13;
48893;PMS5003;34710;35.798;139.446;2023-06-10T12:13:04;14;13;
48893;PMS5003;34710;35.798;139.446;2023-06-10T12:15:29;13;13;
48893;PMS5003;34710;35.798;139.446;2023-06-10T12:17:55;15;13;
48893;PMS5003;34710;35.798;139.446;2023-06-10T12:20:26;13;11;
48893;PMS5003;34710;35.798;139.446;2023-06-10T12:22:45;17;13;
48893;PMS5003;34710;35.798;139.446;2023-06-10T12:25:11;12;12;
48893;PMS5003;34710;35.798;139.446;2023-06-10T12:27:36;16;13;
48893;PMS5003;34710;35.798;139.446;2023-06-10T12:30:02;17;14;
48893;PMS5003;34710;35.798;139.446;2023-06-10T12:35:01;15;12;
48893;PMS5003;34710;35.798;139.446;2023-06-10T12:37:18;24;14;
48893;PMS5003;34710;35.798;139.446;2023-06-10T12:39:43;14;13;
48893;PMS5003;34710;35.798;139.446;2023-06-10T12:42:09;13;12;
48893;PMS5003;34710;35.798;139.446;2023-06-10T12:44:34;12;12;
48893;PMS5003;34710;35.798;139.446;2023-06-10T12:46:58;15;12;
48893;PMS5003;34710;35.798;139.446;2023-06-10T12:49:24;16;11;
48893;PMS5003;34710;35.798;139.446;2023-06-10T12:51:49;12;12;
48893;PMS5003;34710;35.798;139.446;2023-06-10T12:54:14;15;9;
48893;PMS5003;34710;35.798;139.446;2023-06-10T12:56:39;15;9;
48893;PMS5003;34710;35.798;139.446;2023-06-10T12:59:05;12;10;
48893;PMS5003;34710;35.798;139.446;2023-06-10T13:01:30;12;11;
48893;PMS5003;34710;35.798;139.446;2023-06-10T13:03:55;11;11;
48893;PMS5003;34710;35.798;139.446;2023-06-10T13:06:20;10;10;
48893;PMS5003;34710;35.798;139.446;2023-06-10T13:08:45;13;11;
48893;PMS5003;34710;35.798;139.446;2023-06-10T13:11:10;13;11;
48893;PMS5003;34710;35.798;139.446;2023-06-10T13:13:36;13;11;
48893;PMS5003;34710;35.798;139.446;2023-06-10T13:16:01;13;12;
48893;PMS5003;34710;35.798;139.446;2023-06-10T13:18:26;18;12;
48893;PMS5003;34710;35.798;139.446;2023-06-10T13:20:51;16;13;
48893;PMS5003;34710;35.798;139.446;2023-06-10T13:23:17;11;11;
48893;PMS5003;34710;35.798;139.446;2023-06-10T13:25:42;13;12;
48893;PMS5003;34710;35.798;139.446;2023-06-10T13:28:07;11;10;
48893;PMS5003;34710;35.798;139.446;2023-06-10T13:30:32;16;13;
48893;PMS5003;34710;35.798;139.446;2023-06-10T13:32:57;13;12;
48893;PMS5003;34710;35.798;139.446;2023-06-10T13:35:23;16;11;
48893;PMS5003;34710;35.798;139.446;2023-06-10T13:37:48;23;12;
48893;PMS5003;34710;35.798;139.446;2023-06-10T13:40:14;20;14;
48893;PMS5003;34710;35.798;139.446;2023-06-10T13:42:39;13;13;
48893;PMS5003;34710;35.798;139.446;2023-06-10T13:45:04;12;11;
48893;PMS5003;34710;35.798;139.446;2023-06-10T13:47:30;21;13;
48893;PMS5003;34710;35.798;139.446;2023-06-10T13:49:55;14;12;
48893;PMS5003;34710;35.798;139.446;2023-06-10T13:52:20;15;14;
48893;PMS5003;34710;35.798;139.446;2023-06-10T13:54:46;12;11;
48893;PMS5003;34710;35.798;139.446;2023-06-10T13:57:11;13;11;
48893;PMS5003;34710;35.798;139.446;2023-06-10T13:59:36;17;14;
48893;PMS5003;34710;35.798;139.446;2023-06-10T14:02:01;17;13;
48893;PMS5003;34710;35.798;139.446;2023-06-10T14:04:27;12;10;
48893;PMS5003;34710;35.798;139.446;2023-06-10T14:06:52;10;9;
48893;PMS5003;34710;35.798;139.446;2023-06-10T14:09:17;14;13;
48893;PMS5003;34710;35.798;139.446;2023-06-10T14:11:42;17;13;
48893;PMS5003;34710;35.798;139.446;2023-06-10T14:14:07;26;15;
48893;PMS5003;34710;35.798;139.446;2023-06-10T14:16:33;17;16;
48893;PMS5003;34710;35.798;139.446;2023-06-10T14:18:58;18;13;
48893;PMS5003;34710;35.798;139.446;2023-06-10T14:21:23;14;12;
48893;PMS5003;34710;35.798;139.446;2023-06-10T14:23:48;14;13;
48893;PMS5003;34710;35.798;139.446;2023-06-10T14:26:14;19;15;
48893;PMS5003;34710;35.798;139.446;2023-06-10T14:28:39;13;13;
48893;PMS5003;34710;35.798;139.446;2023-06-10T14:31:04;15;12;
48893;PMS5003;34710;35.798;139.446;2023-06-10T14:33:29;14;14;
48893;PMS5003;34710;35.798;139.446;2023-06-10T14:35:54;14;14;
48893;PMS5003;34710;35.798;139.446;2023-06-10T14:38:19;19;12;
48893;PMS5003;34710;35.798;139.446;2023-06-10T14:40:45;17;13;
48893;PMS5003;34710;35.798;139.446;2023-06-10T14:43:10;15;12;
48893;PMS5003;34710;35.798;139.446;2023-06-10T14:45:36;11;11;
48893;PMS5003;34710;35.798;139.446;2023-06-10T14:48:00;12;9;
48893;PMS5003;34710;35.798;139.446;2023-06-10T14:50:26;21;13;
48893;PMS5003;34710;35.798;139.446;2023-06-10T14:52:50;16;13;
48893;PMS5003;34710;35.798;139.446;2023-06-10T14:55:16;15;13;
48893;PMS5003;34710;35.798;139.446;2023-06-10T14:57:41;14;13;
48893;PMS5003;34710;35.798;139.446;2023-06-10T15:00:08;16;15;
48893;PMS5003;34710;35.798;139.446;2023-06-10T15:02:31;17;12;
48893;PMS5003;34710;35.798;139.446;2023-06-10T15:04:56;15;14;
48893;PMS5003;34710;35.798;139.446;2023-06-10T15:07:21;17;15;
48893;PMS5003;34710;35.798;139.446;2023-06-10T15:09:47;21;16;
48893;PMS5003;34710;35.798;139.446;2023-06-10T15:12:13;17;16;
48893;PMS5003;34710;35.798;139.446;2023-06-10T15:14:38;13;13;
48893;PMS5003;34710;35.798;139.446;2023-06-10T15:17:03;22;15;
48893;PMS5003;34710;35.798;139.446;2023-06-10T15:19:28;20;16;
48893;PMS5003;34710;35.798;139.446;2023-06-10T15:21:53;26;18;
48893;PMS5003;34710;35.798;139.446;2023-06-10T15:24:18;20;16;
48893;PMS5003;34710;35.798;139.446;2023-06-10T15:26:43;18;14;
48893;PMS5003;34710;35.798;139.446;2023-06-10T15:29:09;17;16;
48893;PMS5003;34710;35.798;139.446;2023-06-10T15:31:34;19;15;
48893;PMS5003;34710;35.798;139.446;2023-06-10T15:33:59;16;16;
48893;PMS5003;34710;35.798;139.446;2023-06-10T15:36:24;17;15;
48893;PMS5003;34710;35.798;139.446;2023-06-10T15:38:50;19;16;
48893;PMS5003;34710;35.798;139.446;2023-06-10T15:41:15;16;16;
48893;PMS5003;34710;35.798;139.446;2023-06-10T15:43:40;32;17;
48893;PMS5003;34710;35.798;139.446;2023-06-10T15:46:05;24;19;